ěÝzenÝ letovÚho provozu ╚eskÚ republiky
Letiste: LKTB Aktualizace: 27.02.2024 13:00:54  UTC
 METAR LKTB 27.02. 13:00 ...
METAR LKTB 271300Z 13011KT 9999 FEW031 14/08 Q1011 NOSIG=
 TAF LKTB 27.02. 11:00 ...
TAF LKTB 271100Z 2712/2812 15010KT 9999 SCT025      BECMG 2717/2719 9999 BKN025      BECMG 2801/2803 18004KT CAVOK=